AIRPORT ID: 8G2

DATE: 2024-07-20 ZULU TIME: 11.55 LOCAL TIME: 7.55


METAR K8G2 201155Z AUTO 00000KT 10SM 17/14 A3021

ALTIMETER: A3021 Q1023

DENSITY ALT: 2100 Ft

WIND DIRECT: 130

WIND SPEED: 0 Gust

WIND CONDITIONS:

VISIBILTY: 10SM 9999M

TEMPERATURE: 63 F 17 C

DEW POINT: 57 F 14 C

HUMID: 81%

LCL: 1,000-3,000 feet

RADIO CHECK: 0

ADVISARIES: 1

GREETINGS: 0

CONVERSATIONS: 5